sensor_id;sensor_type;location;lat;lon;timestamp;P1;durP1;ratioP1;P2;durP2;ratioP2
2544;SDS011;36212;48.838;9.142;2022-11-15T00:01:09;3.45;;;3.17;;
2544;SDS011;36212;48.838;9.142;2022-11-15T00:03:50;4.07;;;3.78;;
2544;SDS011;36212;48.838;9.142;2022-11-15T00:06:23;3.63;;;3.40;;
2544;SDS011;36212;48.838;9.142;2022-11-15T00:08:59;3.00;;;2.70;;
2544;SDS011;36212;48.838;9.142;2022-11-15T00:11:32;4.82;;;3.42;;
2544;SDS011;36212;48.838;9.142;2022-11-15T00:14:04;3.70;;;3.40;;
2544;SDS011;36212;48.838;9.142;2022-11-15T00:16:36;3.35;;;3.05;;
2544;SDS011;36212;48.838;9.142;2022-11-15T00:19:09;3.28;;;3.08;;
2544;SDS011;36212;48.838;9.142;2022-11-15T00:21:41;4.32;;;3.63;;
2544;SDS011;36212;48.838;9.142;2022-11-15T00:24:13;3.60;;;3.20;;
2544;SDS011;36212;48.838;9.142;2022-11-15T00:26:45;3.35;;;3.15;;
2544;SDS011;36212;48.838;9.142;2022-11-15T00:29:17;3.20;;;3.00;;
2544;SDS011;36212;48.838;9.142;2022-11-15T00:31:49;3.40;;;3.10;;
2544;SDS011;36212;48.838;9.142;2022-11-15T00:34:22;4.15;;;3.72;;
2544;SDS011;36212;48.838;9.142;2022-11-15T00:36:55;3.22;;;3.03;;
2544;SDS011;36212;48.838;9.142;2022-11-15T00:39:28;3.55;;;3.25;;
2544;SDS011;36212;48.838;9.142;2022-11-15T00:41:59;4.15;;;2.70;;
2544;SDS011;36212;48.838;9.142;2022-11-15T00:44:31;3.40;;;3.10;;
2544;SDS011;36212;48.838;9.142;2022-11-15T00:47:04;3.38;;;3.08;;
2544;SDS011;36212;48.838;9.142;2022-11-15T00:49:36;3.35;;;3.10;;
2544;SDS011;36212;48.838;9.142;2022-11-15T00:52:08;3.63;;;3.35;;
2544;SDS011;36212;48.838;9.142;2022-11-15T00:54:40;3.88;;;3.25;;
2544;SDS011;36212;48.838;9.142;2022-11-15T00:57:12;3.67;;;3.10;;
2544;SDS011;36212;48.838;9.142;2022-11-15T00:59:44;3.25;;;2.97;;
2544;SDS011;36212;48.838;9.142;2022-11-15T01:02:16;3.42;;;3.17;;
2544;SDS011;36212;48.838;9.142;2022-11-15T01:04:48;3.03;;;2.83;;
2544;SDS011;36212;48.838;9.142;2022-11-15T01:07:20;3.15;;;2.95;;
2544;SDS011;36212;48.838;9.142;2022-11-15T01:09:52;3.42;;;3.10;;
2544;SDS011;36212;48.838;9.142;2022-11-15T01:12:24;3.33;;;2.90;;
2544;SDS011;36212;48.838;9.142;2022-11-15T01:14:56;3.30;;;3.00;;
2544;SDS011;36212;48.838;9.142;2022-11-15T01:17:29;3.63;;;3.33;;
2544;SDS011;36212;48.838;9.142;2022-11-15T01:20:02;3.38;;;3.17;;
2544;SDS011;36212;48.838;9.142;2022-11-15T01:22:36;3.80;;;3.50;;
2544;SDS011;36212;48.838;9.142;2022-11-15T01:25:07;2.85;;;2.65;;
2544;SDS011;36212;48.838;9.142;2022-11-15T01:27:39;3.40;;;3.20;;
2544;SDS011;36212;48.838;9.142;2022-11-15T01:30:12;3.83;;;3.53;;
2544;SDS011;36212;48.838;9.142;2022-11-15T01:32:44;4.22;;;3.83;;
2544;SDS011;36212;48.838;9.142;2022-11-15T01:35:16;3.80;;;3.58;;
2544;SDS011;36212;48.838;9.142;2022-11-15T01:37:48;3.65;;;3.30;;
2544;SDS011;36212;48.838;9.142;2022-11-15T01:40:20;4.78;;;4.25;;
2544;SDS011;36212;48.838;9.142;2022-11-15T01:42:52;4.28;;;3.97;;
2544;SDS011;36212;48.838;9.142;2022-11-15T01:45:24;4.70;;;4.30;;
2544;SDS011;36212;48.838;9.142;2022-11-15T01:47:57;4.00;;;3.70;;
2544;SDS011;36212;48.838;9.142;2022-11-15T01:50:30;4.85;;;3.80;;
2544;SDS011;36212;48.838;9.142;2022-11-15T01:53:04;4.60;;;4.30;;
2544;SDS011;36212;48.838;9.142;2022-11-15T01:55:36;4.50;;;4.10;;
2544;SDS011;36212;48.838;9.142;2022-11-15T01:58:08;4.07;;;3.78;;
2544;SDS011;36212;48.838;9.142;2022-11-15T02:00:40;5.78;;;3.67;;
2544;SDS011;36212;48.838;9.142;2022-11-15T02:03:13;4.22;;;3.83;;
2544;SDS011;36212;48.838;9.142;2022-11-15T02:05:46;5.47;;;3.85;;
2544;SDS011;36212;48.838;9.142;2022-11-15T02:08:18;9.00;;;3.92;;
2544;SDS011;36212;48.838;9.142;2022-11-15T02:10:54;3.90;;;3.60;;
2544;SDS011;36212;48.838;9.142;2022-11-15T02:13:26;5.22;;;3.10;;
2544;SDS011;36212;48.838;9.142;2022-11-15T02:34:56;4.05;;;3.75;;
2544;SDS011;36212;48.838;9.142;2022-11-15T02:40:45;3.60;;;3.30;;
2544;SDS011;36212;48.838;9.142;2022-11-15T02:46:48;4.03;;;3.55;;
2544;SDS011;36212;48.838;9.142;2022-11-15T02:49:47;3.88;;;3.58;;
2544;SDS011;36212;48.838;9.142;2022-11-15T02:52:28;4.25;;;3.85;;
2544;SDS011;36212;48.838;9.142;2022-11-15T02:55:01;4.13;;;3.72;;
2544;SDS011;36212;48.838;9.142;2022-11-15T03:00:21;4.82;;;4.43;;
2544;SDS011;36212;48.838;9.142;2022-11-15T03:12:16;6.43;;;3.80;;
2544;SDS011;36212;48.838;9.142;2022-11-15T03:15:22;4.10;;;3.70;;
2544;SDS011;36212;48.838;9.142;2022-11-15T03:18:04;4.15;;;3.85;;
2544;SDS011;36212;48.838;9.142;2022-11-15T03:20:51;5.60;;;3.33;;
2544;SDS011;36212;48.838;9.142;2022-11-15T03:23:25;3.85;;;3.47;;
2544;SDS011;36212;48.838;9.142;2022-11-15T03:26:01;3.75;;;3.42;;
2544;SDS011;36212;48.838;9.142;2022-11-15T03:31:23;3.60;;;3.30;;
2544;SDS011;36212;48.838;9.142;2022-11-15T03:37:22;5.38;;;4.65;;
2544;SDS011;36212;48.838;9.142;2022-11-15T03:40:14;4.00;;;3.70;;
2544;SDS011;36212;48.838;9.142;2022-11-15T03:45:49;3.20;;;3.00;;
2544;SDS011;36212;48.838;9.142;2022-11-15T03:48:46;4.50;;;3.55;;
2544;SDS011;36212;48.838;9.142;2022-11-15T03:51:30;3.97;;;3.67;;
2544;SDS011;36212;48.838;9.142;2022-11-15T03:54:03;3.67;;;3.38;;
2544;SDS011;36212;48.838;9.142;2022-11-15T03:56:37;5.00;;;4.50;;
2544;SDS011;36212;48.838;9.142;2022-11-15T03:59:09;5.18;;;4.05;;
2544;SDS011;36212;48.838;9.142;2022-11-15T04:01:41;4.70;;;4.25;;
2544;SDS011;36212;48.838;9.142;2022-11-15T04:04:13;4.68;;;4.10;;
2544;SDS011;36212;48.838;9.142;2022-11-15T04:06:45;6.10;;;4.85;;
2544;SDS011;36212;48.838;9.142;2022-11-15T04:09:17;4.25;;;3.85;;
2544;SDS011;36212;48.838;9.142;2022-11-15T04:11:50;3.72;;;3.53;;
2544;SDS011;36212;48.838;9.142;2022-11-15T04:14:22;4.80;;;3.92;;
2544;SDS011;36212;48.838;9.142;2022-11-15T04:16:54;4.50;;;4.13;;
2544;SDS011;36212;48.838;9.142;2022-11-15T04:19:26;4.90;;;4.40;;
2544;SDS011;36212;48.838;9.142;2022-11-15T04:22:37;5.22;;;3.90;;
2544;SDS011;36212;48.838;9.142;2022-11-15T04:25:52;4.63;;;4.22;;
2544;SDS011;36212;48.838;9.142;2022-11-15T04:28:29;4.32;;;3.92;;
2544;SDS011;36212;48.838;9.142;2022-11-15T04:31:01;4.80;;;4.40;;
2544;SDS011;36212;48.838;9.142;2022-11-15T04:33:33;4.32;;;3.75;;
2544;SDS011;36212;48.838;9.142;2022-11-15T04:36:05;4.30;;;4.00;;
2544;SDS011;36212;48.838;9.142;2022-11-15T04:39:16;5.30;;;4.15;;
2544;SDS011;36212;48.838;9.142;2022-11-15T04:41:48;6.18;;;3.97;;
2544;SDS011;36212;48.838;9.142;2022-11-15T04:44:20;5.57;;;4.30;;
2544;SDS011;36212;48.838;9.142;2022-11-15T04:46:52;4.15;;;3.90;;
2544;SDS011;36212;48.838;9.142;2022-11-15T04:49:24;4.22;;;3.83;;
2544;SDS011;36212;48.838;9.142;2022-11-15T04:51:57;6.53;;;3.92;;
2544;SDS011;36212;48.838;9.142;2022-11-15T04:54:29;5.30;;;4.05;;
2544;SDS011;36212;48.838;9.142;2022-11-15T04:57:01;4.90;;;4.60;;
2544;SDS011;36212;48.838;9.142;2022-11-15T04:59:33;4.93;;;3.95;;
2544;SDS011;36212;48.838;9.142;2022-11-15T05:02:08;4.40;;;4.10;;
2544;SDS011;36212;48.838;9.142;2022-11-15T05:04:40;4.50;;;4.20;;
2544;SDS011;36212;48.838;9.142;2022-11-15T05:07:12;4.93;;;4.53;;
2544;SDS011;36212;48.838;9.142;2022-11-15T05:09:44;4.20;;;3.65;;
2544;SDS011;36212;48.838;9.142;2022-11-15T05:12:16;4.90;;;3.92;;
2544;SDS011;36212;48.838;9.142;2022-11-15T05:14:48;4.85;;;4.45;;
2544;SDS011;36212;48.838;9.142;2022-11-15T05:17:20;3.80;;;3.50;;
2544;SDS011;36212;48.838;9.142;2022-11-15T05:19:52;4.85;;;4.35;;
2544;SDS011;36212;48.838;9.142;2022-11-15T05:22:24;4.65;;;4.25;;
2544;SDS011;36212;48.838;9.142;2022-11-15T05:24:57;3.97;;;3.50;;
2544;SDS011;36212;48.838;9.142;2022-11-15T05:27:29;4.10;;;3.70;;
2544;SDS011;36212;48.838;9.142;2022-11-15T05:30:01;4.05;;;3.75;;
2544;SDS011;36212;48.838;9.142;2022-11-15T05:32:33;8.05;;;3.80;;
2544;SDS011;36212;48.838;9.142;2022-11-15T05:35:06;3.72;;;3.53;;
2544;SDS011;36212;48.838;9.142;2022-11-15T05:37:49;4.13;;;3.75;;
2544;SDS011;36212;48.838;9.142;2022-11-15T05:40:21;4.15;;;3.85;;
2544;SDS011;36212;48.838;9.142;2022-11-15T05:42:54;4.03;;;3.72;;
2544;SDS011;36212;48.838;9.142;2022-11-15T05:45:26;3.65;;;3.42;;
2544;SDS011;36212;48.838;9.142;2022-11-15T05:48:00;3.72;;;3.42;;
2544;SDS011;36212;48.838;9.142;2022-11-15T05:50:38;3.00;;;2.80;;
2544;SDS011;36212;48.838;9.142;2022-11-15T05:53:15;3.92;;;3.63;;
2544;SDS011;36212;48.838;9.142;2022-11-15T05:55:52;3.42;;;3.22;;
2544;SDS011;36212;48.838;9.142;2022-11-15T05:58:25;5.28;;;4.78;;
2544;SDS011;36212;48.838;9.142;2022-11-15T06:00:57;3.97;;;3.53;;
2544;SDS011;36212;48.838;9.142;2022-11-15T06:03:30;7.15;;;3.80;;
2544;SDS011;36212;48.838;9.142;2022-11-15T06:06:03;4.80;;;4.07;;
2544;SDS011;36212;48.838;9.142;2022-11-15T06:08:36;5.75;;;4.10;;
2544;SDS011;36212;48.838;9.142;2022-11-15T06:11:08;6.05;;;4.35;;
2544;SDS011;36212;48.838;9.142;2022-11-15T06:13:40;7.40;;;4.80;;
2544;SDS011;36212;48.838;9.142;2022-11-15T06:16:12;5.30;;;4.90;;
2544;SDS011;36212;48.838;9.142;2022-11-15T06:18:44;4.95;;;4.55;;
2544;SDS011;36212;48.838;9.142;2022-11-15T06:21:17;4.47;;;4.15;;
2544;SDS011;36212;48.838;9.142;2022-11-15T06:23:49;5.15;;;4.65;;
2544;SDS011;36212;48.838;9.142;2022-11-15T06:26:21;5.43;;;5.03;;
2544;SDS011;36212;48.838;9.142;2022-11-15T06:28:54;6.85;;;5.63;;
2544;SDS011;36212;48.838;9.142;2022-11-15T06:31:26;5.25;;;4.85;;
2544;SDS011;36212;48.838;9.142;2022-11-15T06:33:58;5.32;;;4.93;;
2544;SDS011;36212;48.838;9.142;2022-11-15T06:36:30;4.80;;;4.40;;
2544;SDS011;36212;48.838;9.142;2022-11-15T06:39:04;4.72;;;4.32;;
2544;SDS011;36212;48.838;9.142;2022-11-15T06:41:36;6.32;;;5.28;;
2544;SDS011;36212;48.838;9.142;2022-11-15T06:44:09;9.82;;;5.22;;
2544;SDS011;36212;48.838;9.142;2022-11-15T06:46:41;5.20;;;4.70;;
2544;SDS011;36212;48.838;9.142;2022-11-15T06:49:13;5.38;;;4.97;;
2544;SDS011;36212;48.838;9.142;2022-11-15T06:51:47;5.13;;;4.72;;
2544;SDS011;36212;48.838;9.142;2022-11-15T06:54:19;5.78;;;5.20;;
2544;SDS011;36212;48.838;9.142;2022-11-15T06:56:52;8.82;;;6.05;;
2544;SDS011;36212;48.838;9.142;2022-11-15T06:59:24;5.50;;;4.97;;
2544;SDS011;36212;48.838;9.142;2022-11-15T07:01:56;5.22;;;4.80;;
2544;SDS011;36212;48.838;9.142;2022-11-15T07:04:28;5.65;;;4.90;;
2544;SDS011;36212;48.838;9.142;2022-11-15T07:07:01;4.90;;;4.50;;
2544;SDS011;36212;48.838;9.142;2022-11-15T07:09:33;4.28;;;3.90;;
2544;SDS011;36212;48.838;9.142;2022-11-15T07:12:05;6.55;;;4.20;;
2544;SDS011;36212;48.838;9.142;2022-11-15T07:14:38;3.60;;;3.40;;
2544;SDS011;36212;48.838;9.142;2022-11-15T07:17:10;4.40;;;3.83;;
2544;SDS011;36212;48.838;9.142;2022-11-15T07:19:42;3.90;;;3.70;;
2544;SDS011;36212;48.838;9.142;2022-11-15T07:22:14;4.55;;;4.15;;
2544;SDS011;36212;48.838;9.142;2022-11-15T07:24:46;4.32;;;3.60;;
2544;SDS011;36212;48.838;9.142;2022-11-15T07:27:19;3.72;;;3.42;;
2544;SDS011;36212;48.838;9.142;2022-11-15T07:29:51;9.05;;;4.22;;
2544;SDS011;36212;48.838;9.142;2022-11-15T07:32:24;4.13;;;3.75;;
2544;SDS011;36212;48.838;9.142;2022-11-15T07:34:56;4.57;;;4.20;;
2544;SDS011;36212;48.838;9.142;2022-11-15T07:37:28;4.32;;;3.95;;
2544;SDS011;36212;48.838;9.142;2022-11-15T07:40:02;3.78;;;3.45;;
2544;SDS011;36212;48.838;9.142;2022-11-15T07:42:35;3.45;;;3.22;;
2544;SDS011;36212;48.838;9.142;2022-11-15T07:45:41;5.45;;;3.50;;
2544;SDS011;36212;48.838;9.142;2022-11-15T07:48:16;6.03;;;4.45;;
2544;SDS011;36212;48.838;9.142;2022-11-15T07:50:48;4.13;;;3.83;;
2544;SDS011;36212;48.838;9.142;2022-11-15T07:53:20;3.75;;;3.40;;
2544;SDS011;36212;48.838;9.142;2022-11-15T07:55:52;7.38;;;3.58;;
2544;SDS011;36212;48.838;9.142;2022-11-15T07:58:27;3.72;;;3.35;;
2544;SDS011;36212;48.838;9.142;2022-11-15T08:01:05;6.43;;;3.58;;
2544;SDS011;36212;48.838;9.142;2022-11-15T08:03:43;4.63;;;4.15;;
2544;SDS011;36212;48.838;9.142;2022-11-15T08:06:19;3.42;;;3.13;;
2544;SDS011;36212;48.838;9.142;2022-11-15T08:08:51;5.18;;;4.00;;
2544;SDS011;36212;48.838;9.142;2022-11-15T08:11:23;3.47;;;3.28;;
2544;SDS011;36212;48.838;9.142;2022-11-15T08:13:58;5.47;;;3.30;;
2544;SDS011;36212;48.838;9.142;2022-11-15T08:16:34;4.65;;;3.20;;
2544;SDS011;36212;48.838;9.142;2022-11-15T08:19:06;4.45;;;4.00;;
2544;SDS011;36212;48.838;9.142;2022-11-15T08:21:38;3.60;;;3.40;;
2544;SDS011;36212;48.838;9.142;2022-11-15T08:24:13;6.22;;;4.03;;
2544;SDS011;36212;48.838;9.142;2022-11-15T08:26:46;4.38;;;3.97;;
2544;SDS011;36212;48.838;9.142;2022-11-15T08:29:18;6.13;;;4.45;;
2544;SDS011;36212;48.838;9.142;2022-11-15T08:31:50;5.60;;;4.80;;
2544;SDS011;36212;48.838;9.142;2022-11-15T08:34:25;5.57;;;4.63;;
2544;SDS011;36212;48.838;9.142;2022-11-15T08:36:58;4.80;;;4.40;;
2544;SDS011;36212;48.838;9.142;2022-11-15T08:39:33;4.85;;;4.35;;
2544;SDS011;36212;48.838;9.142;2022-11-15T08:42:05;4.40;;;3.88;;
2544;SDS011;36212;48.838;9.142;2022-11-15T08:44:39;5.50;;;3.30;;
2544;SDS011;36212;48.838;9.142;2022-11-15T08:47:12;3.97;;;3.55;;
2544;SDS011;36212;48.838;9.142;2022-11-15T08:49:45;3.90;;;3.53;;
2544;SDS011;36212;48.838;9.142;2022-11-15T08:52:22;4.85;;;4.10;;
2544;SDS011;36212;48.838;9.142;2022-11-15T08:54:54;4.40;;;4.00;;
2544;SDS011;36212;48.838;9.142;2022-11-15T08:57:30;5.65;;;3.60;;
2544;SDS011;36212;48.838;9.142;2022-11-15T09:00:04;7.35;;;4.10;;
2544;SDS011;36212;48.838;9.142;2022-11-15T09:02:42;4.00;;;3.60;;
2544;SDS011;36212;48.838;9.142;2022-11-15T09:05:14;5.28;;;4.78;;
2544;SDS011;36212;48.838;9.142;2022-11-15T09:07:52;5.88;;;5.35;;
2544;SDS011;36212;48.838;9.142;2022-11-15T09:10:25;5.45;;;4.95;;
2544;SDS011;36212;48.838;9.142;2022-11-15T09:12:58;7.68;;;4.35;;
2544;SDS011;36212;48.838;9.142;2022-11-15T09:15:33;5.18;;;4.78;;
2544;SDS011;36212;48.838;9.142;2022-11-15T09:18:06;5.22;;;4.75;;
2544;SDS011;36212;48.838;9.142;2022-11-15T09:20:41;13.90;;;5.60;;
2544;SDS011;36212;48.838;9.142;2022-11-15T09:23:14;5.57;;;4.93;;
2544;SDS011;36212;48.838;9.142;2022-11-15T09:25:51;6.15;;;5.38;;
2544;SDS011;36212;48.838;9.142;2022-11-15T09:28:29;8.40;;;5.47;;
2544;SDS011;36212;48.838;9.142;2022-11-15T09:31:04;6.95;;;5.65;;
2544;SDS011;36212;48.838;9.142;2022-11-15T09:33:37;9.50;;;6.13;;
2544;SDS011;36212;48.838;9.142;2022-11-15T09:36:21;5.97;;;5.47;;
2544;SDS011;36212;48.838;9.142;2022-11-15T09:38:57;7.15;;;5.80;;
2544;SDS011;36212;48.838;9.142;2022-11-15T09:41:34;6.60;;;6.00;;
2544;SDS011;36212;48.838;9.142;2022-11-15T09:47:51;8.43;;;6.53;;
2544;SDS011;36212;48.838;9.142;2022-11-15T09:51:12;8.40;;;7.40;;
2544;SDS011;36212;48.838;9.142;2022-11-15T10:03:16;8.13;;;5.60;;
2544;SDS011;36212;48.838;9.142;2022-11-15T10:06:04;5.93;;;5.40;;
2544;SDS011;36212;48.838;9.142;2022-11-15T10:08:46;7.57;;;6.00;;
2544;SDS011;36212;48.838;9.142;2022-11-15T10:11:37;6.70;;;6.00;;
2544;SDS011;36212;48.838;9.142;2022-11-15T10:14:15;6.53;;;5.93;;
2544;SDS011;36212;48.838;9.142;2022-11-15T10:19:46;6.13;;;5.53;;
2544;SDS011;36212;48.838;9.142;2022-11-15T10:22:46;12.88;;;5.93;;
2544;SDS011;36212;48.838;9.142;2022-11-15T10:25:36;10.77;;;5.90;;
2544;SDS011;36212;48.838;9.142;2022-11-15T10:30:58;6.00;;;5.43;;
2544;SDS011;36212;48.838;9.142;2022-11-15T10:33:34;5.95;;;5.47;;
2544;SDS011;36212;48.838;9.142;2022-11-15T10:41:32;7.47;;;6.78;;
2544;SDS011;36212;48.838;9.142;2022-11-15T10:44:30;8.13;;;6.35;;
2544;SDS011;36212;48.838;9.142;2022-11-15T10:58:34;7.22;;;6.35;;
2544;SDS011;36212;48.838;9.142;2022-11-15T11:01:25;9.77;;;8.00;;
2544;SDS011;36212;48.838;9.142;2022-11-15T11:04:03;7.57;;;6.28;;
2544;SDS011;36212;48.838;9.142;2022-11-15T11:12:46;8.40;;;6.50;;
2544;SDS011;36212;48.838;9.142;2022-11-15T11:15:19;7.88;;;6.00;;
2544;SDS011;36212;48.838;9.142;2022-11-15T11:18:10;6.15;;;5.65;;
2544;SDS011;36212;48.838;9.142;2022-11-15T11:20:58;9.38;;;6.78;;
2544;SDS011;36212;48.838;9.142;2022-11-15T11:26:57;9.60;;;7.15;;
2544;SDS011;36212;48.838;9.142;2022-11-15T11:32:43;8.25;;;5.90;;
2544;SDS011;36212;48.838;9.142;2022-11-15T11:35:46;6.07;;;5.43;;
2544;SDS011;36212;48.838;9.142;2022-11-15T11:41:59;6.03;;;5.47;;
2544;SDS011;36212;48.838;9.142;2022-11-15T11:48:19;7.03;;;6.32;;
2544;SDS011;36212;48.838;9.142;2022-11-15T12:06:58;6.45;;;5.45;;
2544;SDS011;36212;48.838;9.142;2022-11-15T12:09:58;6.82;;;5.75;;
2544;SDS011;36212;48.838;9.142;2022-11-15T12:13:08;6.00;;;5.43;;
2544;SDS011;36212;48.838;9.142;2022-11-15T12:15:50;6.93;;;6.25;;
2544;SDS011;36212;48.838;9.142;2022-11-15T12:18:53;8.05;;;4.80;;
2544;SDS011;36212;48.838;9.142;2022-11-15T12:22:03;5.70;;;5.20;;
2544;SDS011;36212;48.838;9.142;2022-11-15T12:24:41;5.70;;;5.18;;
2544;SDS011;36212;48.838;9.142;2022-11-15T12:27:36;6.80;;;5.50;;
2544;SDS011;36212;48.838;9.142;2022-11-15T12:30:54;7.07;;;5.80;;
2544;SDS011;36212;48.838;9.142;2022-11-15T12:33:42;9.88;;;5.80;;
2544;SDS011;36212;48.838;9.142;2022-11-15T12:39:09;7.85;;;6.30;;
2544;SDS011;36212;48.838;9.142;2022-11-15T12:41:44;11.85;;;5.82;;
2544;SDS011;36212;48.838;9.142;2022-11-15T12:44:56;7.88;;;6.10;;
2544;SDS011;36212;48.838;9.142;2022-11-15T12:47:30;6.72;;;5.88;;
2544;SDS011;36212;48.838;9.142;2022-11-15T12:50:02;8.18;;;5.78;;
2544;SDS011;36212;48.838;9.142;2022-11-15T12:52:34;8.23;;;6.28;;
2544;SDS011;36212;48.838;9.142;2022-11-15T12:55:30;6.22;;;5.63;;
2544;SDS011;36212;48.838;9.142;2022-11-15T12:58:24;8.45;;;5.95;;
2544;SDS011;36212;48.838;9.142;2022-11-15T13:04:25;6.65;;;5.72;;
2544;SDS011;36212;48.838;9.142;2022-11-15T13:07:00;6.70;;;6.15;;
2544;SDS011;36212;48.838;9.142;2022-11-15T13:09:58;10.38;;;5.80;;
2544;SDS011;36212;48.838;9.142;2022-11-15T13:12:51;10.00;;;5.63;;
2544;SDS011;36212;48.838;9.142;2022-11-15T13:18:36;9.48;;;5.97;;
2544;SDS011;36212;48.838;9.142;2022-11-15T13:24:32;6.25;;;5.65;;
2544;SDS011;36212;48.838;9.142;2022-11-15T13:27:18;9.70;;;5.63;;
2544;SDS011;36212;48.838;9.142;2022-11-15T13:29:52;9.63;;;7.20;;
2544;SDS011;36212;48.838;9.142;2022-11-15T13:32:25;6.80;;;6.03;;
2544;SDS011;36212;48.838;9.142;2022-11-15T13:34:57;10.40;;;6.50;;
2544;SDS011;36212;48.838;9.142;2022-11-15T13:37:31;8.35;;;6.72;;
2544;SDS011;36212;48.838;9.142;2022-11-15T13:43:28;11.50;;;6.30;;
2544;SDS011;36212;48.838;9.142;2022-11-15T13:48:44;8.57;;;6.40;;
2544;SDS011;36212;48.838;9.142;2022-11-15T13:59:53;12.20;;;6.65;;
2544;SDS011;36212;48.838;9.142;2022-11-15T14:02:37;8.85;;;5.47;;
2544;SDS011;36212;48.838;9.142;2022-11-15T14:05:22;10.43;;;5.50;;
2544;SDS011;36212;48.838;9.142;2022-11-15T14:07:57;9.32;;;5.40;;
2544;SDS011;36212;48.838;9.142;2022-11-15T14:11:08;7.28;;;5.15;;
2544;SDS011;36212;48.838;9.142;2022-11-15T14:16:58;8.20;;;4.00;;
2544;SDS011;36212;48.838;9.142;2022-11-15T14:25:07;4.88;;;3.97;;
2544;SDS011;36212;48.838;9.142;2022-11-15T14:30:59;6.07;;;4.70;;
2544;SDS011;36212;48.838;9.142;2022-11-15T14:33:39;5.10;;;4.65;;
2544;SDS011;36212;48.838;9.142;2022-11-15T14:36:13;5.03;;;3.90;;
2544;SDS011;36212;48.838;9.142;2022-11-15T14:38:49;8.60;;;4.70;;
2544;SDS011;36212;48.838;9.142;2022-11-15T14:41:22;5.32;;;4.93;;
2544;SDS011;36212;48.838;9.142;2022-11-15T14:43:57;5.25;;;4.75;;
2544;SDS011;36212;48.838;9.142;2022-11-15T14:46:30;6.85;;;6.25;;
2544;SDS011;36212;48.838;9.142;2022-11-15T14:49:02;5.45;;;5.00;;
2544;SDS011;36212;48.838;9.142;2022-11-15T14:51:34;8.07;;;5.68;;
2544;SDS011;36212;48.838;9.142;2022-11-15T14:54:08;6.22;;;5.50;;
2544;SDS011;36212;48.838;9.142;2022-11-15T14:56:41;6.20;;;4.70;;
2544;SDS011;36212;48.838;9.142;2022-11-15T14:59:14;5.50;;;4.85;;
2544;SDS011;36212;48.838;9.142;2022-11-15T15:01:46;6.50;;;5.90;;
2544;SDS011;36212;48.838;9.142;2022-11-15T15:04:18;6.50;;;5.90;;
2544;SDS011;36212;48.838;9.142;2022-11-15T15:06:50;5.47;;;4.97;;
2544;SDS011;36212;48.838;9.142;2022-11-15T15:09:22;5.82;;;5.20;;
2544;SDS011;36212;48.838;9.142;2022-11-15T15:11:54;6.57;;;5.30;;
2544;SDS011;36212;48.838;9.142;2022-11-15T15:14:26;6.15;;;4.88;;
2544;SDS011;36212;48.838;9.142;2022-11-15T15:16:58;6.03;;;5.43;;
2544;SDS011;36212;48.838;9.142;2022-11-15T15:19:30;6.43;;;5.75;;
2544;SDS011;36212;48.838;9.142;2022-11-15T15:22:02;5.40;;;4.35;;
2544;SDS011;36212;48.838;9.142;2022-11-15T15:24:35;6.15;;;4.32;;
2544;SDS011;36212;48.838;9.142;2022-11-15T15:27:08;5.03;;;4.50;;
2544;SDS011;36212;48.838;9.142;2022-11-15T15:29:41;6.05;;;5.22;;
2544;SDS011;36212;48.838;9.142;2022-11-15T15:32:15;9.07;;;6.38;;
2544;SDS011;36212;48.838;9.142;2022-11-15T15:34:48;7.70;;;5.50;;
2544;SDS011;36212;48.838;9.142;2022-11-15T15:37:24;5.63;;;5.00;;
2544;SDS011;36212;48.838;9.142;2022-11-15T15:39:57;6.22;;;5.20;;
2544;SDS011;36212;48.838;9.142;2022-11-15T15:42:29;4.60;;;4.18;;
2544;SDS011;36212;48.838;9.142;2022-11-15T15:45:03;4.35;;;3.95;;
2544;SDS011;36212;48.838;9.142;2022-11-15T15:47:36;4.53;;;4.22;;
2544;SDS011;36212;48.838;9.142;2022-11-15T15:50:29;5.28;;;4.97;;
2544;SDS011;36212;48.838;9.142;2022-11-15T15:53:04;6.07;;;5.57;;
2544;SDS011;36212;48.838;9.142;2022-11-15T15:55:39;4.25;;;3.95;;
2544;SDS011;36212;48.838;9.142;2022-11-15T15:58:11;6.20;;;5.60;;
2544;SDS011;36212;48.838;9.142;2022-11-15T16:00:44;5.00;;;4.57;;
2544;SDS011;36212;48.838;9.142;2022-11-15T16:03:16;5.35;;;4.85;;
2544;SDS011;36212;48.838;9.142;2022-11-15T16:05:49;5.53;;;4.25;;
2544;SDS011;36212;48.838;9.142;2022-11-15T16:08:23;7.80;;;5.20;;
2544;SDS011;36212;48.838;9.142;2022-11-15T16:11:00;7.30;;;4.47;;
2544;SDS011;36212;48.838;9.142;2022-11-15T16:13:37;14.75;;;9.25;;
2544;SDS011;36212;48.838;9.142;2022-11-15T16:16:11;11.18;;;7.22;;
2544;SDS011;36212;48.838;9.142;2022-11-15T16:18:45;6.63;;;5.22;;
2544;SDS011;36212;48.838;9.142;2022-11-15T16:21:18;5.60;;;5.10;;
2544;SDS011;36212;48.838;9.142;2022-11-15T16:23:51;6.40;;;4.60;;
2544;SDS011;36212;48.838;9.142;2022-11-15T16:26:24;5.95;;;5.38;;
2544;SDS011;36212;48.838;9.142;2022-11-15T16:29:02;4.90;;;4.47;;
2544;SDS011;36212;48.838;9.142;2022-11-15T16:31:35;5.32;;;4.82;;
2544;SDS011;36212;48.838;9.142;2022-11-15T16:34:08;5.60;;;4.65;;
2544;SDS011;36212;48.838;9.142;2022-11-15T16:36:40;6.43;;;5.88;;
2544;SDS011;36212;48.838;9.142;2022-11-15T16:39:13;5.97;;;5.47;;
2544;SDS011;36212;48.838;9.142;2022-11-15T16:41:49;9.52;;;7.07;;
2544;SDS011;36212;48.838;9.142;2022-11-15T16:44:22;9.30;;;6.47;;
2544;SDS011;36212;48.838;9.142;2022-11-15T16:46:56;6.65;;;6.15;;
2544;SDS011;36212;48.838;9.142;2022-11-15T16:49:29;7.35;;;6.03;;
2544;SDS011;36212;48.838;9.142;2022-11-15T16:52:02;7.40;;;5.22;;
2544;SDS011;36212;48.838;9.142;2022-11-15T16:54:34;5.68;;;5.10;;
2544;SDS011;36212;48.838;9.142;2022-11-15T16:57:07;5.45;;;4.95;;
2544;SDS011;36212;48.838;9.142;2022-11-15T16:59:42;6.05;;;5.45;;
2544;SDS011;36212;48.838;9.142;2022-11-15T17:02:14;5.82;;;5.10;;
2544;SDS011;36212;48.838;9.142;2022-11-15T17:04:48;6.00;;;5.50;;
2544;SDS011;36212;48.838;9.142;2022-11-15T17:10:05;8.57;;;5.38;;
2544;SDS011;36212;48.838;9.142;2022-11-15T17:12:42;5.15;;;4.75;;
2544;SDS011;36212;48.838;9.142;2022-11-15T17:15:15;7.28;;;4.95;;
2544;SDS011;36212;48.838;9.142;2022-11-15T17:17:52;5.47;;;4.97;;
2544;SDS011;36212;48.838;9.142;2022-11-15T17:20:26;6.20;;;5.68;;
2544;SDS011;36212;48.838;9.142;2022-11-15T17:22:59;6.63;;;6.13;;
2544;SDS011;36212;48.838;9.142;2022-11-15T17:25:32;10.18;;;5.80;;
2544;SDS011;36212;48.838;9.142;2022-11-15T17:28:04;6.05;;;5.20;;
2544;SDS011;36212;48.838;9.142;2022-11-15T17:30:39;6.60;;;6.00;;
2544;SDS011;36212;48.838;9.142;2022-11-15T17:33:14;5.85;;;5.35;;
2544;SDS011;36212;48.838;9.142;2022-11-15T17:35:53;7.47;;;6.97;;
2544;SDS011;36212;48.838;9.142;2022-11-15T17:38:32;8.23;;;7.38;;
2544;SDS011;36212;48.838;9.142;2022-11-15T17:41:07;7.80;;;7.10;;
2544;SDS011;36212;48.838;9.142;2022-11-15T17:43:44;7.65;;;7.05;;
2544;SDS011;36212;48.838;9.142;2022-11-15T17:46:19;8.10;;;7.40;;
2544;SDS011;36212;48.838;9.142;2022-11-15T17:48:53;6.10;;;5.70;;
2544;SDS011;36212;48.838;9.142;2022-11-15T17:51:27;5.60;;;5.00;;
2544;SDS011;36212;48.838;9.142;2022-11-15T17:54:00;5.57;;;5.18;;
2544;SDS011;36212;48.838;9.142;2022-11-15T17:56:37;5.05;;;4.57;;
2544;SDS011;36212;48.838;9.142;2022-11-15T17:59:11;5.80;;;4.90;;
2544;SDS011;36212;48.838;9.142;2022-11-15T18:01:49;5.13;;;4.72;;
2544;SDS011;36212;48.838;9.142;2022-11-15T18:04:23;7.00;;;5.10;;
2544;SDS011;36212;48.838;9.142;2022-11-15T18:06:59;5.72;;;5.22;;
2544;SDS011;36212;48.838;9.142;2022-11-15T18:09:32;8.23;;;5.60;;
2544;SDS011;36212;48.838;9.142;2022-11-15T18:12:05;7.07;;;6.43;;
2544;SDS011;36212;48.838;9.142;2022-11-15T18:14:41;9.38;;;6.43;;
2544;SDS011;36212;48.838;9.142;2022-11-15T18:17:14;6.88;;;5.57;;
2544;SDS011;36212;48.838;9.142;2022-11-15T18:19:48;6.88;;;6.00;;
2544;SDS011;36212;48.838;9.142;2022-11-15T18:22:22;7.10;;;6.40;;
2544;SDS011;36212;48.838;9.142;2022-11-15T18:24:56;10.70;;;6.43;;
2544;SDS011;36212;48.838;9.142;2022-11-15T18:30:26;7.60;;;6.20;;
2544;SDS011;36212;48.838;9.142;2022-11-15T18:33:00;8.07;;;6.72;;
2544;SDS011;36212;48.838;9.142;2022-11-15T18:35:33;7.05;;;6.35;;
2544;SDS011;36212;48.838;9.142;2022-11-15T18:38:05;7.03;;;6.32;;